KAL094 CYEG-RKSI
Flight info
| Callsign | KAL094 |
|---|---|
| Flight time | N/A |
| Altitude | 34000 |
| Route | YZU DCT YXJ DCT GUDEN DCT YXY Q811 TOVAD DCT GKN DCT DTOUR DCT 62N160W DCT LESAD B932 MORLY/N0483F360 R338 NATES R220 NUZAN/N0477F370 R220 NUBDA/N0480F380 R220 NODAN R217 ASTER Y514 SDE Y512 GTC Y142 SAMON Y14 SUGNO Y16 SAPRA Y685 GUKDO |
| Aircraft | B77W/H-SDE2FGHIJ1J3J5M1P2RWXYZ/LB1D1 |
Departure
| Time | 2026-04-27 22:03 |
|---|---|
| Airport | Edmonton International Airport (CYEG) |
Arrival
| Time | N/A |
|---|---|
| Airport | Incheon International Airport (RKSI) |
| Time | Latitude | Longitude | Altitude | Speed | Heading |
|---|---|---|---|---|---|
| 2026-04-27 21:47 | 53.30425 | -113.58187 | 2351 ft | 0 kts | 45° |
| 2026-04-27 21:53 | 53.30416 | -113.58202 | 2350 ft | 2 kts | 45° |
| 2026-04-27 21:53 | 53.30405 | -113.58219 | 2350 ft | 2 kts | 44° |
| 2026-04-27 21:53 | 53.30395 | -113.58237 | 2349 ft | 2 kts | 45° |
| 2026-04-27 21:53 | 53.30384 | -113.58256 | 2349 ft | 2 kts | 45° |
| 2026-04-27 21:54 | 53.30372 | -113.58270 | 2349 ft | 2 kts | 9° |
| 2026-04-27 21:54 | 53.30358 | -113.58269 | 2349 ft | 2 kts | 334° |
| 2026-04-27 21:54 | 53.30346 | -113.58253 | 2349 ft | 2 kts | 309° |
| 2026-04-27 21:54 | 53.30337 | -113.58235 | 2349 ft | 2 kts | 311° |
| 2026-04-27 21:55 | 53.30331 | -113.58225 | 2350 ft | 0 kts | 313° |
| 2026-04-27 21:56 | 53.30349 | -113.58255 | 2349 ft | 5 kts | 314° |
| 2026-04-27 21:56 | 53.30387 | -113.58321 | 2348 ft | 10 kts | 315° |
| 2026-04-27 21:57 | 53.30446 | -113.58418 | 2346 ft | 13 kts | 315° |
| 2026-04-27 21:57 | 53.30516 | -113.58535 | 2343 ft | 15 kts | 315° |
| 2026-04-27 21:57 | 53.30591 | -113.58669 | 2337 ft | 16 kts | 295° |
| 2026-04-27 21:57 | 53.30625 | -113.58844 | 2334 ft | 15 kts | 320° |
| 2026-04-27 21:58 | 53.30729 | -113.58877 | 2332 ft | 14 kts | 355° |
| 2026-04-27 21:58 | 53.30825 | -113.58893 | 2330 ft | 10 kts | 341° |
| 2026-04-27 21:58 | 53.30849 | -113.59007 | 2327 ft | 11 kts | 266° |
| 2026-04-27 21:58 | 53.30842 | -113.59145 | 2324 ft | 12 kts | 264° |
| 2026-04-27 21:59 | 53.30835 | -113.59277 | 2324 ft | 10 kts | 264° |
| 2026-04-27 21:59 | 53.30831 | -113.59354 | 2324 ft | 0 kts | 264° |
| 2026-04-27 21:59 | 53.30831 | -113.59356 | 2324 ft | 0 kts | 260° |
| 2026-04-27 21:59 | 53.30825 | -113.59367 | 2324 ft | 2 kts | 208° |
| 2026-04-27 22:00 | 53.30804 | -113.59361 | 2324 ft | 2 kts | 161° |
| 2026-04-27 22:00 | 53.30792 | -113.59352 | 2325 ft | 2 kts | 157° |
| 2026-04-27 22:00 | 53.30779 | -113.59348 | 2325 ft | 1 kts | 180° |
| 2026-04-27 22:00 | 53.30767 | -113.59353 | 2325 ft | 2 kts | 199° |
| 2026-04-27 22:01 | 53.30745 | -113.59373 | 2326 ft | 5 kts | 213° |
| 2026-04-27 22:01 | 53.30706 | -113.59418 | 2326 ft | 8 kts | 213° |
| 2026-04-27 22:01 | 53.30651 | -113.59480 | 2324 ft | 9 kts | 216° |
| 2026-04-27 22:01 | 53.30616 | -113.59518 | 2325 ft | 3 kts | 192° |
| 2026-04-27 22:02 | 53.30593 | -113.59512 | 2325 ft | 2 kts | 149° |
| 2026-04-27 22:02 | 53.30584 | -113.59499 | 2326 ft | 0 kts | 134° |
| 2026-04-27 22:02 | 53.30558 | -113.59454 | 2326 ft | 22 kts | 134° |
| 2026-04-27 22:02 | 53.30282 | -113.58990 | 2334 ft | 87 kts | 135° |
| 2026-04-27 22:03 | 53.29715 | -113.58042 | 2357 ft | 142 kts | 133° |
| 2026-04-27 22:03 | 53.28910 | -113.56727 | 2513 ft | 175 kts | 137° |
| 2026-04-27 22:03 | 53.28048 | -113.55267 | 3142 ft | 180 kts | 134° |
| 2026-04-27 22:03 | 53.27172 | -113.53788 | 3856 ft | 186 kts | 136° |
| 2026-04-27 22:04 | 53.26271 | -113.52288 | 4422 ft | 185 kts | 135° |
| 2026-04-27 22:04 | 53.25335 | -113.50729 | 4757 ft | 191 kts | 135° |
| 2026-04-27 22:04 | 53.24392 | -113.49159 | 5166 ft | 194 kts | 136° |
| 2026-04-27 22:04 | 53.23425 | -113.47617 | 5566 ft | 196 kts | 145° |
| 2026-04-27 22:05 | 53.22091 | -113.46837 | 5572 ft | 216 kts | 180° |
| 2026-04-27 22:05 | 53.20634 | -113.47639 | 5587 ft | 236 kts | 219° |
| 2026-04-27 22:05 | 53.19714 | -113.49998 | 5705 ft | 261 kts | 257° |
| 2026-04-27 22:05 | 53.19805 | -113.53055 | 6237 ft | 270 kts | 289° |
| 2026-04-27 22:06 | 53.20718 | -113.55772 | 7056 ft | 270 kts | 304° |
| 2026-04-27 22:06 | 53.21801 | -113.58278 | 7777 ft | 272 kts | 305° |
| 2026-04-27 22:06 | 53.22921 | -113.60841 | 8499 ft | 275 kts | 305° |
| 2026-04-27 22:06 | 53.24049 | -113.63423 | 9240 ft | 277 kts | 305° |
| 2026-04-27 22:07 | 53.25169 | -113.65990 | 9934 ft | 279 kts | 306° |
| 2026-04-27 22:07 | 53.26322 | -113.68634 | 10462 ft | 288 kts | 306° |
| 2026-04-27 22:07 | 53.27537 | -113.71423 | 10766 ft | 306 kts | 306° |
| 2026-04-27 22:07 | 53.28831 | -113.74399 | 11038 ft | 325 kts | 306° |
| 2026-04-27 22:08 | 53.30173 | -113.77487 | 11361 ft | 342 kts | 306° |
| 2026-04-27 22:08 | 53.31603 | -113.80780 | 11870 ft | 354 kts | 306° |
| 2026-04-27 22:08 | 53.33038 | -113.84091 | 12648 ft | 357 kts | 306° |
| 2026-04-27 22:08 | 53.34489 | -113.87444 | 13492 ft | 358 kts | 306° |
| 2026-04-27 22:09 | 53.35956 | -113.90837 | 14257 ft | 361 kts | 306° |
| 2026-04-27 22:09 | 53.37421 | -113.94232 | 14961 ft | 365 kts | 306° |
| 2026-04-27 22:09 | 53.38911 | -113.97688 | 15686 ft | 369 kts | 307° |
| 2026-04-27 22:09 | 53.40422 | -114.01196 | 16398 ft | 372 kts | 307° |
| 2026-04-27 22:10 | 53.41923 | -114.04688 | 17062 ft | 376 kts | 307° |
| 2026-04-27 22:10 | 53.43454 | -114.08252 | 17726 ft | 379 kts | 307° |
| 2026-04-27 22:10 | 53.45001 | -114.11861 | 18375 ft | 383 kts | 307° |
| 2026-04-27 22:10 | 53.46556 | -114.15492 | 19037 ft | 386 kts | 307° |
| 2026-04-27 22:11 | 53.48124 | -114.19161 | 19618 ft | 390 kts | 307° |
| 2026-04-27 22:11 | 53.49688 | -114.22824 | 20201 ft | 394 kts | 307° |
| 2026-04-27 22:11 | 53.51294 | -114.26592 | 20786 ft | 397 kts | 308° |
| 2026-04-27 22:11 | 53.52908 | -114.30383 | 21354 ft | 400 kts | 308° |
| 2026-04-27 22:12 | 53.54526 | -114.34190 | 21897 ft | 404 kts | 308° |
| 2026-04-27 22:12 | 53.56150 | -114.38017 | 22435 ft | 407 kts | 308° |
| 2026-04-27 22:12 | 53.57803 | -114.41916 | 22948 ft | 411 kts | 308° |
| 2026-04-27 22:12 | 53.59461 | -114.45837 | 23447 ft | 414 kts | 309° |
| 2026-04-27 22:13 | 53.61111 | -114.49742 | 23943 ft | 417 kts | 309° |
| 2026-04-27 22:13 | 53.62793 | -114.53730 | 24444 ft | 420 kts | 309° |
| 2026-04-27 22:13 | 53.64485 | -114.57746 | 24931 ft | 424 kts | 309° |
| 2026-04-27 22:13 | 53.66193 | -114.61809 | 25409 ft | 427 kts | 308° |
| 2026-04-27 22:14 | 53.67930 | -114.65947 | 25897 ft | 430 kts | 308° |
| 2026-04-27 22:14 | 53.69654 | -114.70061 | 26347 ft | 433 kts | 308° |
| 2026-04-27 22:14 | 53.71399 | -114.74232 | 26797 ft | 436 kts | 308° |
| 2026-04-27 22:14 | 53.73130 | -114.78378 | 27248 ft | 439 kts | 308° |
| 2026-04-27 22:15 | 53.74891 | -114.82600 | 27697 ft | 442 kts | 308° |
| 2026-04-27 22:15 | 53.76663 | -114.86858 | 28120 ft | 445 kts | 308° |
| 2026-04-27 22:15 | 53.78450 | -114.91159 | 28534 ft | 448 kts | 308° |
| 2026-04-27 22:15 | 53.80220 | -114.95427 | 28960 ft | 450 kts | 308° |
| 2026-04-27 22:16 | 53.82026 | -114.99787 | 29377 ft | 453 kts | 308° |
| 2026-04-27 22:16 | 53.83834 | -115.04162 | 29770 ft | 456 kts | 308° |
| 2026-04-27 22:16 | 53.85651 | -115.08566 | 30161 ft | 459 kts | 308° |
| 2026-04-27 22:16 | 53.87472 | -115.12988 | 30551 ft | 461 kts | 308° |
| 2026-04-27 22:17 | 53.89301 | -115.17437 | 31040 ft | 460 kts | 308° |
| 2026-04-27 22:17 | 53.91115 | -115.21857 | 31518 ft | 459 kts | 307° |
| 2026-04-27 22:17 | 53.92925 | -115.26277 | 31952 ft | 458 kts | 307° |
| 2026-04-27 22:17 | 53.94736 | -115.30705 | 32351 ft | 458 kts | 307° |
| 2026-04-27 22:18 | 53.96534 | -115.35111 | 32717 ft | 458 kts | 307° |
| 2026-04-27 22:18 | 53.98343 | -115.39551 | 33094 ft | 457 kts | 307° |
| 2026-04-27 22:18 | 54.00153 | -115.44001 | 33448 ft | 457 kts | 307° |
| 2026-04-27 22:18 | 54.01942 | -115.48406 | 33764 ft | 457 kts | 307° |
| 2026-04-27 22:19 | 54.03747 | -115.52860 | 33925 ft | 460 kts | 307° |
| 2026-04-27 22:19 | 54.07408 | -115.61915 | 33947 ft | 468 kts | 307° |
| 2026-04-27 22:20 | 54.11065 | -115.70998 | 33951 ft | 467 kts | 306° |
| 2026-04-27 22:20 | 54.14745 | -115.80169 | 33950 ft | 468 kts | 306° |
| 2026-04-27 22:21 | 54.18684 | -115.88842 | 33948 ft | 467 kts | 310° |
| 2026-04-27 22:21 | 54.22736 | -115.97509 | 33942 ft | 466 kts | 310° |
| 2026-04-27 22:22 | 54.26759 | -116.06193 | 33933 ft | 466 kts | 310° |
| 2026-04-27 22:22 | 54.30741 | -116.14845 | 33934 ft | 466 kts | 310° |
| 2026-04-27 22:23 | 54.34722 | -116.23541 | 33927 ft | 466 kts | 310° |
| 2026-04-27 22:23 | 54.38725 | -116.32324 | 33922 ft | 466 kts | 310° |
| 2026-04-27 22:24 | 54.42688 | -116.41054 | 33914 ft | 465 kts | 309° |
| 2026-04-27 22:24 | 54.46639 | -116.49789 | 33916 ft | 466 kts | 309° |
| 2026-04-27 22:25 | 54.50587 | -116.58551 | 33917 ft | 465 kts | 309° |
| 2026-04-27 22:25 | 54.54530 | -116.67335 | 33921 ft | 465 kts | 309° |
| 2026-04-27 22:26 | 54.58489 | -116.76184 | 33928 ft | 466 kts | 309° |
| 2026-04-27 22:26 | 54.62425 | -116.85014 | 33924 ft | 465 kts | 308° |
| 2026-04-27 22:27 | 54.66333 | -116.93812 | 33922 ft | 465 kts | 308° |
| 2026-04-27 22:27 | 54.70261 | -117.02686 | 33919 ft | 465 kts | 308° |
| 2026-04-27 22:28 | 54.74158 | -117.11524 | 33919 ft | 465 kts | 308° |
| 2026-04-27 22:28 | 54.78067 | -117.20419 | 33923 ft | 466 kts | 308° |
| 2026-04-27 22:29 | 54.81975 | -117.29344 | 33921 ft | 465 kts | 308° |
| 2026-04-27 22:29 | 54.85869 | -117.38271 | 33913 ft | 466 kts | 308° |
| 2026-04-27 22:30 | 54.89751 | -117.47201 | 33915 ft | 466 kts | 308° |
| 2026-04-27 22:30 | 54.93651 | -117.56207 | 33910 ft | 465 kts | 308° |
| 2026-04-27 22:31 | 54.97523 | -117.65179 | 33912 ft | 467 kts | 307° |
| 2026-04-27 22:31 | 55.01397 | -117.74188 | 33915 ft | 466 kts | 307° |
| 2026-04-27 22:32 | 55.05267 | -117.83221 | 33911 ft | 467 kts | 307° |
| 2026-04-27 22:32 | 55.09129 | -117.92269 | 33916 ft | 467 kts | 307° |
| 2026-04-27 22:33 | 55.12978 | -118.01320 | 33920 ft | 467 kts | 307° |
| 2026-04-27 22:33 | 55.16842 | -118.10439 | 33916 ft | 467 kts | 307° |
| 2026-04-27 22:34 | 55.20702 | -118.19583 | 33920 ft | 467 kts | 307° |
| 2026-04-27 22:34 | 55.24539 | -118.28707 | 33928 ft | 467 kts | 307° |
| 2026-04-27 22:35 | 55.28357 | -118.37817 | 33929 ft | 466 kts | 307° |
| 2026-04-27 22:35 | 55.32184 | -118.46985 | 33930 ft | 466 kts | 307° |
| 2026-04-27 22:36 | 55.35988 | -118.56131 | 33926 ft | 466 kts | 307° |
| 2026-04-27 22:36 | 55.39787 | -118.65298 | 33926 ft | 467 kts | 306° |
| 2026-04-27 22:37 | 55.43607 | -118.74551 | 33921 ft | 467 kts | 306° |
| 2026-04-27 22:37 | 55.47381 | -118.83728 | 33916 ft | 466 kts | 306° |
| 2026-04-27 22:38 | 55.51175 | -118.92987 | 33909 ft | 467 kts | 306° |
| 2026-04-27 22:38 | 55.54933 | -119.02193 | 33912 ft | 466 kts | 306° |
| 2026-04-27 22:39 | 55.58715 | -119.11494 | 33909 ft | 465 kts | 306° |
| 2026-04-27 22:39 | 55.62455 | -119.20725 | 33916 ft | 465 kts | 306° |
| 2026-04-27 22:40 | 55.66185 | -119.29967 | 33905 ft | 463 kts | 306° |
| 2026-04-27 22:40 | 55.69928 | -119.39273 | 33914 ft | 462 kts | 306° |
| 2026-04-27 22:41 | 55.73626 | -119.48506 | 33912 ft | 463 kts | 306° |
| 2026-04-27 22:41 | 55.77323 | -119.57771 | 33900 ft | 462 kts | 307° |
| 2026-04-27 22:42 | 55.81034 | -119.67104 | 33915 ft | 461 kts | 306° |
| 2026-04-27 22:42 | 55.84715 | -119.76398 | 33908 ft | 461 kts | 306° |
| 2026-04-27 22:43 | 55.88359 | -119.85635 | 33924 ft | 459 kts | 306° |
| 2026-04-27 22:43 | 55.92030 | -119.94972 | 33935 ft | 460 kts | 306° |
| 2026-04-27 22:44 | 55.95666 | -120.04259 | 33935 ft | 458 kts | 306° |
| 2026-04-27 22:44 | 55.99286 | -120.13540 | 33933 ft | 458 kts | 307° |
| 2026-04-27 22:45 | 56.02914 | -120.22875 | 33926 ft | 456 kts | 306° |
| 2026-04-27 22:45 | 56.06507 | -120.32156 | 33929 ft | 455 kts | 307° |
| 2026-04-27 22:46 | 56.10094 | -120.41458 | 33928 ft | 454 kts | 307° |
| 2026-04-27 22:46 | 56.13650 | -120.50713 | 33940 ft | 452 kts | 307° |
| 2026-04-27 22:47 | 56.17189 | -120.59959 | 33939 ft | 452 kts | 307° |
| 2026-04-27 22:47 | 56.20737 | -120.69267 | 33947 ft | 451 kts | 306° |
| 2026-04-27 22:48 | 56.24250 | -120.78513 | 33940 ft | 450 kts | 306° |
| 2026-04-27 22:48 | 56.27753 | -120.87773 | 33941 ft | 449 kts | 307° |
| 2026-04-27 22:49 | 56.31313 | -120.97026 | 33939 ft | 448 kts | 307° |
| 2026-04-27 22:49 | 56.34867 | -121.06174 | 33934 ft | 448 kts | 307° |
| 2026-04-27 22:50 | 56.38405 | -121.15324 | 33937 ft | 446 kts | 307° |
| 2026-04-27 22:50 | 56.41942 | -121.24513 | 33927 ft | 447 kts | 307° |
| 2026-04-27 22:51 | 56.45477 | -121.33733 | 33927 ft | 447 kts | 307° |
| 2026-04-27 22:51 | 56.48995 | -121.42947 | 33923 ft | 446 kts | 307° |
| 2026-04-27 22:52 | 56.52497 | -121.52153 | 33925 ft | 446 kts | 307° |
| 2026-04-27 22:52 | 56.55991 | -121.61377 | 33934 ft | 445 kts | 307° |
| 2026-04-27 22:53 | 56.59463 | -121.70573 | 33930 ft | 446 kts | 307° |
| 2026-04-27 22:53 | 56.62953 | -121.79856 | 33937 ft | 446 kts | 307° |
| 2026-04-27 22:54 | 56.66407 | -121.89078 | 33926 ft | 444 kts | 307° |
| 2026-04-27 22:54 | 56.69890 | -121.98412 | 33922 ft | 444 kts | 307° |
| 2026-04-27 22:55 | 56.73336 | -122.07683 | 33919 ft | 443 kts | 307° |
| 2026-04-27 22:55 | 56.76776 | -122.16974 | 33921 ft | 442 kts | 307° |
| 2026-04-27 22:56 | 56.80188 | -122.26222 | 33922 ft | 441 kts | 306° |
| 2026-04-27 22:56 | 56.83584 | -122.35465 | 33919 ft | 441 kts | 307° |
| 2026-04-27 22:57 | 56.86985 | -122.44755 | 33907 ft | 440 kts | 307° |
| 2026-04-27 22:57 | 56.90349 | -122.53980 | 33902 ft | 439 kts | 307° |
| 2026-04-27 22:58 | 56.93716 | -122.63248 | 33899 ft | 438 kts | 307° |
| 2026-04-27 22:58 | 56.97058 | -122.72485 | 33907 ft | 438 kts | 306° |
| 2026-04-27 22:59 | 57.00409 | -122.81781 | 33894 ft | 434 kts | 306° |
| 2026-04-27 22:59 | 57.03734 | -122.91040 | 33888 ft | 436 kts | 306° |
| 2026-04-27 23:00 | 57.08695 | -123.04919 | 33886 ft | 434 kts | 306° |
| 2026-04-27 23:00 | 57.11965 | -123.14115 | 33899 ft | 433 kts | 306° |
| 2026-04-27 23:01 | 57.15258 | -123.23408 | 33894 ft | 434 kts | 306° |
| 2026-04-27 23:01 | 57.18522 | -123.32658 | 33896 ft | 433 kts | 306° |
| 2026-04-27 23:02 | 57.21800 | -123.41979 | 33887 ft | 433 kts | 306° |
| 2026-04-27 23:02 | 57.25061 | -123.51292 | 33886 ft | 432 kts | 306° |
| 2026-04-27 23:03 | 57.28286 | -123.60536 | 33874 ft | 431 kts | 306° |
| 2026-04-27 23:03 | 57.31514 | -123.69826 | 33862 ft | 430 kts | 305° |
| 2026-04-27 23:04 | 57.34733 | -123.79123 | 33847 ft | 430 kts | 305° |
| 2026-04-27 23:04 | 57.37961 | -123.88485 | 33851 ft | 431 kts | 305° |
| 2026-04-27 23:05 | 57.41155 | -123.97784 | 33861 ft | 429 kts | 305° |
| 2026-04-27 23:05 | 57.44347 | -124.07114 | 33858 ft | 430 kts | 305° |
| 2026-04-27 23:06 | 57.47527 | -124.16444 | 33827 ft | 428 kts | 305° |
| 2026-04-27 23:06 | 57.50689 | -124.25758 | 33810 ft | 428 kts | 305° |
| 2026-04-27 23:07 | 57.53866 | -124.35154 | 33815 ft | 429 kts | 305° |
| 2026-04-27 23:07 | 57.57019 | -124.44515 | 33825 ft | 428 kts | 305° |
| 2026-04-27 23:08 | 57.60158 | -124.53869 | 33842 ft | 429 kts | 305° |
| 2026-04-27 23:08 | 57.63296 | -124.63261 | 33836 ft | 428 kts | 305° |
| 2026-04-27 23:09 | 57.66427 | -124.72664 | 33836 ft | 429 kts | 304° |
| 2026-04-27 23:09 | 57.69555 | -124.82098 | 33846 ft | 429 kts | 304° |
| 2026-04-27 23:10 | 57.72670 | -124.91531 | 33877 ft | 427 kts | 304° |
| 2026-04-27 23:10 | 57.75786 | -125.01005 | 33899 ft | 428 kts | 304° |
| 2026-04-27 23:11 | 57.78897 | -125.10501 | 33893 ft | 428 kts | 304° |
| 2026-04-27 23:11 | 57.81982 | -125.19955 | 33885 ft | 427 kts | 304° |
| 2026-04-27 23:12 | 57.85074 | -125.29468 | 33879 ft | 426 kts | 304° |
| 2026-04-27 23:12 | 57.88158 | -125.38994 | 33883 ft | 427 kts | 304° |
| 2026-04-27 23:13 | 57.91208 | -125.48456 | 33886 ft | 425 kts | 304° |
| 2026-04-27 23:13 | 57.94259 | -125.57958 | 33889 ft | 426 kts | 304° |
| 2026-04-27 23:14 | 57.97302 | -125.67472 | 33886 ft | 425 kts | 303° |
| 2026-04-27 23:14 | 58.00319 | -125.76942 | 33876 ft | 424 kts | 303° |
| 2026-04-27 23:15 | 58.03340 | -125.86466 | 33881 ft | 425 kts | 303° |
| 2026-04-27 23:15 | 58.06340 | -125.95961 | 33897 ft | 422 kts | 303° |
| 2026-04-27 23:16 | 58.09335 | -126.05475 | 33902 ft | 424 kts | 303° |
| 2026-04-27 23:16 | 58.12326 | -126.15018 | 33917 ft | 424 kts | 303° |
| 2026-04-27 23:17 | 58.15315 | -126.24594 | 33915 ft | 422 kts | 303° |
| 2026-04-27 23:17 | 58.18285 | -126.34148 | 33904 ft | 424 kts | 303° |
| 2026-04-27 23:18 | 58.21262 | -126.43763 | 33904 ft | 424 kts | 303° |
| 2026-04-27 23:18 | 58.24237 | -126.53410 | 33896 ft | 425 kts | 302° |
| 2026-04-27 23:19 | 58.27198 | -126.63052 | 33889 ft | 425 kts | 302° |
| 2026-04-27 23:19 | 58.30157 | -126.72729 | 33890 ft | 426 kts | 302° |
| 2026-04-27 23:20 | 58.33129 | -126.82486 | 33900 ft | 427 kts | 302° |
| 2026-04-27 23:20 | 58.36071 | -126.92188 | 33913 ft | 425 kts | 302° |
| 2026-04-27 23:21 | 58.39016 | -127.01939 | 33927 ft | 426 kts | 301° |
| 2026-04-27 23:21 | 58.41935 | -127.11643 | 33908 ft | 425 kts | 301° |
| 2026-04-27 23:22 | 58.44870 | -127.21442 | 33894 ft | 427 kts | 301° |
| 2026-04-27 23:22 | 58.47807 | -127.31292 | 33883 ft | 426 kts | 301° |
| 2026-04-27 23:23 | 58.50713 | -127.41076 | 33888 ft | 427 kts | 301° |
| 2026-04-27 23:23 | 58.53620 | -127.50906 | 33885 ft | 425 kts | 301° |
| 2026-04-27 23:24 | 58.56535 | -127.60807 | 33892 ft | 427 kts | 301° |
| 2026-04-27 23:24 | 58.59427 | -127.70670 | 33894 ft | 427 kts | 301° |
| 2026-04-27 23:25 | 58.62318 | -127.80571 | 33900 ft | 427 kts | 301° |
| 2026-04-27 23:25 | 58.65185 | -127.90436 | 33891 ft | 427 kts | 300° |
| 2026-04-27 23:26 | 58.68065 | -128.00385 | 33889 ft | 427 kts | 300° |
| 2026-04-27 23:26 | 58.70948 | -128.10385 | 33868 ft | 428 kts | 300° |
| 2026-04-27 23:27 | 58.73807 | -128.20349 | 33861 ft | 428 kts | 300° |
| 2026-04-27 23:27 | 58.76665 | -128.30350 | 33835 ft | 427 kts | 300° |
| 2026-04-27 23:28 | 58.79502 | -128.40323 | 33848 ft | 428 kts | 300° |
| 2026-04-27 23:28 | 58.82352 | -128.50386 | 33859 ft | 428 kts | 300° |
| 2026-04-27 23:29 | 58.85169 | -128.60371 | 33863 ft | 427 kts | 300° |
| 2026-04-27 23:29 | 58.88003 | -128.70468 | 33878 ft | 428 kts | 299° |
| 2026-04-27 23:30 | 58.90834 | -128.80595 | 33897 ft | 429 kts | 299° |
| 2026-04-27 23:30 | 58.93646 | -128.90698 | 33895 ft | 428 kts | 298° |
| 2026-04-27 23:31 | 58.96440 | -129.00783 | 33890 ft | 429 kts | 298° |
| 2026-04-27 23:31 | 58.99253 | -129.10982 | 33890 ft | 429 kts | 298° |
| 2026-04-27 23:32 | 59.02032 | -129.21103 | 33898 ft | 428 kts | 298° |
| 2026-04-27 23:32 | 59.04827 | -129.31326 | 33896 ft | 429 kts | 298° |
| 2026-04-27 23:33 | 59.07605 | -129.41531 | 33893 ft | 429 kts | 298° |
| 2026-04-27 23:33 | 59.10388 | -129.51804 | 33880 ft | 429 kts | 298° |
| 2026-04-27 23:34 | 59.13158 | -129.62074 | 33890 ft | 430 kts | 298° |
| 2026-04-27 23:34 | 59.15911 | -129.72330 | 33912 ft | 431 kts | 297° |
| 2026-04-27 23:35 | 59.18664 | -129.82631 | 33905 ft | 430 kts | 297° |
| 2026-04-27 23:35 | 59.21417 | -129.92979 | 33893 ft | 431 kts | 297° |
| 2026-04-27 23:36 | 59.24186 | -130.03284 | 33888 ft | 431 kts | 300° |
| 2026-04-27 23:36 | 59.27237 | -130.13351 | 33902 ft | 431 kts | 300° |
| 2026-04-27 23:37 | 59.30253 | -130.23355 | 33913 ft | 431 kts | 300° |
| 2026-04-27 23:37 | 59.33283 | -130.33490 | 33910 ft | 431 kts | 300° |
| 2026-04-27 23:38 | 59.36283 | -130.43593 | 33888 ft | 432 kts | 300° |
| 2026-04-27 23:38 | 59.39283 | -130.53746 | 33889 ft | 432 kts | 299° |
| 2026-04-27 23:39 | 59.42281 | -130.63948 | 33911 ft | 434 kts | 300° |
| 2026-04-27 23:39 | 59.45246 | -130.74085 | 33940 ft | 431 kts | 298° |
| 2026-04-27 23:40 | 59.48229 | -130.84328 | 33941 ft | 433 kts | 298° |
| 2026-04-27 23:40 | 59.51207 | -130.94601 | 33941 ft | 433 kts | 298° |
| 2026-04-27 23:41 | 59.54172 | -131.04878 | 33938 ft | 432 kts | 298° |
| 2026-04-27 23:41 | 59.57129 | -131.15169 | 33913 ft | 434 kts | 298° |
| 2026-04-27 23:42 | 59.60077 | -131.25476 | 33901 ft | 434 kts | 298° |
| 2026-04-27 23:42 | 59.63038 | -131.35878 | 33913 ft | 434 kts | 298° |
| 2026-04-27 23:43 | 59.65970 | -131.46223 | 33913 ft | 435 kts | 298° |
| 2026-04-27 23:43 | 59.68908 | -131.56639 | 33916 ft | 435 kts | 298° |
| 2026-04-27 23:44 | 59.71850 | -131.67113 | 33915 ft | 435 kts | 297° |
| 2026-04-27 23:44 | 59.74762 | -131.77531 | 33928 ft | 437 kts | 297° |
| 2026-04-27 23:45 | 59.77684 | -131.88029 | 33936 ft | 436 kts | 297° |
| 2026-04-27 23:45 | 59.80598 | -131.98552 | 33948 ft | 436 kts | 297° |
| 2026-04-27 23:46 | 59.83501 | -132.09079 | 33961 ft | 436 kts | 297° |
| 2026-04-27 23:46 | 59.86402 | -132.19650 | 33964 ft | 437 kts | 297° |
| 2026-04-27 23:47 | 59.89301 | -132.30264 | 33971 ft | 437 kts | 297° |
| 2026-04-27 23:47 | 59.92180 | -132.40852 | 33946 ft | 438 kts | 297° |
| 2026-04-27 23:48 | 59.95048 | -132.51451 | 33946 ft | 436 kts | 297° |
| 2026-04-27 23:48 | 59.97910 | -132.62080 | 33936 ft | 437 kts | 297° |
| 2026-04-27 23:49 | 60.00773 | -132.72759 | 33958 ft | 437 kts | 296° |
| 2026-04-27 23:49 | 60.03612 | -132.83403 | 33954 ft | 437 kts | 296° |
| 2026-04-27 23:50 | 60.06452 | -132.94096 | 33952 ft | 437 kts | 296° |
| 2026-04-27 23:50 | 60.09302 | -133.04884 | 33955 ft | 438 kts | 296° |
| 2026-04-27 23:51 | 60.12132 | -133.15640 | 33949 ft | 438 kts | 296° |
| 2026-04-27 23:51 | 60.14952 | -133.26416 | 33931 ft | 439 kts | 296° |
| 2026-04-27 23:52 | 60.17759 | -133.37190 | 33933 ft | 440 kts | 296° |
| 2026-04-27 23:52 | 60.20593 | -133.48123 | 33924 ft | 440 kts | 296° |
| 2026-04-27 23:53 | 60.23388 | -133.58960 | 33923 ft | 440 kts | 296° |
| 2026-04-27 23:53 | 60.26189 | -133.69870 | 33939 ft | 441 kts | 295° |
| 2026-04-27 23:54 | 60.28995 | -133.80858 | 33964 ft | 441 kts | 295° |
| 2026-04-27 23:54 | 60.31775 | -133.91794 | 33955 ft | 442 kts | 295° |
| 2026-04-27 23:55 | 60.34563 | -134.02821 | 33962 ft | 443 kts | 295° |
| 2026-04-27 23:55 | 60.37350 | -134.13895 | 33950 ft | 444 kts | 295° |
| 2026-04-27 23:56 | 60.40127 | -134.24985 | 33966 ft | 445 kts | 295° |
| 2026-04-27 23:56 | 60.42900 | -134.36113 | 33969 ft | 444 kts | 295° |
| 2026-04-27 23:57 | 60.45643 | -134.47179 | 33970 ft | 445 kts | 295° |
| 2026-04-27 23:57 | 60.48417 | -134.58429 | 33964 ft | 446 kts | 295° |
| 2026-04-27 23:58 | 60.51157 | -134.69594 | 33943 ft | 446 kts | 294° |
| 2026-04-27 23:58 | 60.53916 | -134.80898 | 33932 ft | 446 kts | 294° |
| 2026-04-27 23:59 | 60.56655 | -134.92175 | 33960 ft | 447 kts | 294° |
| 2026-04-27 23:59 | 60.59386 | -135.03482 | 33972 ft | 448 kts | 294° |
| 2026-04-28 00:00 | 60.62069 | -135.14857 | 33974 ft | 447 kts | 292° |
| 2026-04-28 00:00 | 60.64537 | -135.26459 | 33952 ft | 448 kts | 291° |
| 2026-04-28 00:01 | 60.66978 | -135.38055 | 33945 ft | 449 kts | 291° |
| 2026-04-28 00:01 | 60.69418 | -135.49721 | 33946 ft | 449 kts | 291° |
| 2026-04-28 00:02 | 60.71859 | -135.61461 | 33944 ft | 449 kts | 291° |
| 2026-04-28 00:02 | 60.74286 | -135.73206 | 33945 ft | 449 kts | 291° |
| 2026-04-28 00:03 | 60.76689 | -135.84907 | 33967 ft | 450 kts | 290° |
| 2026-04-28 00:03 | 60.79097 | -135.96692 | 33959 ft | 450 kts | 290° |
| 2026-04-28 00:04 | 60.82683 | -136.14380 | 33955 ft | 451 kts | 290° |
| 2026-04-28 00:05 | 60.85058 | -136.26178 | 33932 ft | 452 kts | 290° |
| 2026-04-28 00:05 | 60.87442 | -136.38095 | 33921 ft | 451 kts | 290° |
| 2026-04-28 00:06 | 60.89792 | -136.49907 | 33953 ft | 452 kts | 290° |
| 2026-04-28 00:06 | 60.92150 | -136.61832 | 33942 ft | 453 kts | 290° |
| 2026-04-28 00:07 | 60.94496 | -136.73766 | 33927 ft | 452 kts | 290° |
| 2026-04-28 00:07 | 60.96830 | -136.85710 | 33914 ft | 452 kts | 290° |
| 2026-04-28 00:08 | 60.99170 | -136.97759 | 33927 ft | 452 kts | 290° |
| 2026-04-28 00:08 | 61.01478 | -137.09712 | 33925 ft | 454 kts | 290° |
| 2026-04-28 00:09 | 61.03795 | -137.21786 | 33890 ft | 453 kts | 290° |
| 2026-04-28 00:09 | 61.06085 | -137.33794 | 33878 ft | 453 kts | 290° |
| 2026-04-28 00:10 | 61.08377 | -137.45883 | 33890 ft | 454 kts | 290° |
| 2026-04-28 00:10 | 61.10666 | -137.58032 | 33895 ft | 453 kts | 290° |
| 2026-04-28 00:11 | 61.12926 | -137.70105 | 33885 ft | 453 kts | 289° |
| 2026-04-28 00:11 | 61.15187 | -137.82262 | 33870 ft | 454 kts | 289° |
| 2026-04-28 00:12 | 61.17448 | -137.94484 | 33856 ft | 454 kts | 289° |
| 2026-04-28 00:12 | 61.19675 | -138.06604 | 33829 ft | 454 kts | 289° |
| 2026-04-28 00:13 | 61.21905 | -138.18822 | 33841 ft | 454 kts | 289° |
| 2026-04-28 00:13 | 61.24118 | -138.31021 | 33833 ft | 455 kts | 289° |
| 2026-04-28 00:14 | 61.26328 | -138.43277 | 33861 ft | 455 kts | 288° |
| 2026-04-28 00:14 | 61.28527 | -138.55551 | 33897 ft | 454 kts | 288° |
| 2026-04-28 00:15 | 61.30713 | -138.67836 | 33909 ft | 455 kts | 288° |
| 2026-04-28 00:15 | 61.32886 | -138.80125 | 33920 ft | 455 kts | 287° |
| 2026-04-28 00:16 | 61.35062 | -138.92513 | 33910 ft | 455 kts | 287° |
| 2026-04-28 00:16 | 61.37159 | -139.04848 | 33905 ft | 454 kts | 284° |
| 2026-04-28 00:17 | 61.38949 | -139.17418 | 33909 ft | 455 kts | 284° |
| 2026-04-28 00:17 | 61.40713 | -139.30019 | 33917 ft | 455 kts | 284° |
| 2026-04-28 00:18 | 61.42469 | -139.42673 | 33916 ft | 455 kts | 284° |
| 2026-04-28 00:18 | 61.44214 | -139.55356 | 33905 ft | 456 kts | 284° |
| 2026-04-28 00:19 | 61.45940 | -139.68007 | 33926 ft | 456 kts | 283° |
| 2026-04-28 00:19 | 61.47665 | -139.80748 | 33929 ft | 456 kts | 283° |
| 2026-04-28 00:20 | 61.49370 | -139.93440 | 33920 ft | 456 kts | 283° |
| 2026-04-28 00:20 | 61.51078 | -140.06262 | 33918 ft | 457 kts | 283° |
| 2026-04-28 00:21 | 61.52761 | -140.18999 | 33901 ft | 456 kts | 283° |
| 2026-04-28 00:21 | 61.54434 | -140.31764 | 33899 ft | 457 kts | 283° |
| 2026-04-28 00:22 | 61.56100 | -140.44580 | 33893 ft | 457 kts | 283° |
| 2026-04-28 00:22 | 61.57751 | -140.57388 | 33879 ft | 458 kts | 283° |
| 2026-04-28 00:23 | 61.59394 | -140.70241 | 33846 ft | 457 kts | 282° |
| 2026-04-28 00:23 | 61.61027 | -140.83124 | 33840 ft | 457 kts | 282° |
| 2026-04-28 00:24 | 61.62640 | -140.95960 | 33843 ft | 457 kts | 282° |
| 2026-04-28 00:24 | 61.64341 | -141.08868 | 33863 ft | 459 kts | 283° |
| 2026-04-28 00:25 | 61.66072 | -141.21654 | 33852 ft | 459 kts | 283° |
| 2026-04-28 00:25 | 61.67806 | -141.34607 | 33869 ft | 459 kts | 283° |
| 2026-04-28 00:26 | 61.69507 | -141.47443 | 33872 ft | 460 kts | 283° |
| 2026-04-28 00:26 | 61.71207 | -141.60387 | 33880 ft | 460 kts | 282° |
| 2026-04-28 00:27 | 61.72894 | -141.73344 | 33899 ft | 461 kts | 282° |
| 2026-04-28 00:27 | 61.74579 | -141.86397 | 33872 ft | 461 kts | 281° |
| 2026-04-28 00:28 | 61.76239 | -141.99365 | 33817 ft | 461 kts | 281° |
| 2026-04-28 00:28 | 61.77896 | -142.12427 | 33816 ft | 462 kts | 281° |
| 2026-04-28 00:29 | 61.79533 | -142.25439 | 33850 ft | 462 kts | 281° |
| 2026-04-28 00:29 | 61.81167 | -142.38541 | 33866 ft | 461 kts | 281° |
| 2026-04-28 00:30 | 61.82781 | -142.51604 | 33871 ft | 463 kts | 281° |
| 2026-04-28 00:30 | 61.84399 | -142.64807 | 33845 ft | 463 kts | 281° |
| 2026-04-28 00:31 | 61.85999 | -142.77977 | 33805 ft | 463 kts | 280° |
| 2026-04-28 00:31 | 61.87588 | -142.91182 | 33810 ft | 465 kts | 280° |
| 2026-04-28 00:32 | 61.89166 | -143.04402 | 33812 ft | 465 kts | 280° |
| 2026-04-28 00:32 | 61.90730 | -143.17636 | 33814 ft | 465 kts | 280° |
| 2026-04-28 00:33 | 61.92280 | -143.30875 | 33807 ft | 465 kts | 280° |
| 2026-04-28 00:33 | 61.93820 | -143.44142 | 33805 ft | 466 kts | 280° |
| 2026-04-28 00:34 | 61.95352 | -143.57469 | 33808 ft | 466 kts | 280° |
| 2026-04-28 00:34 | 61.96874 | -143.70834 | 33808 ft | 466 kts | 279° |
| 2026-04-28 00:35 | 61.98381 | -143.84187 | 33788 ft | 466 kts | 279° |
| 2026-04-28 00:35 | 61.99876 | -143.97568 | 33744 ft | 466 kts | 279° |
| 2026-04-28 00:36 | 62.01353 | -144.10918 | 33746 ft | 466 kts | 279° |
| 2026-04-28 00:36 | 62.02822 | -144.24326 | 33838 ft | 468 kts | 279° |
| 2026-04-28 00:37 | 62.04277 | -144.37735 | 33879 ft | 467 kts | 279° |
| 2026-04-28 00:37 | 62.05723 | -144.51192 | 33884 ft | 467 kts | 278° |
| 2026-04-28 00:38 | 62.07150 | -144.64612 | 33885 ft | 468 kts | 278° |
| 2026-04-28 00:38 | 62.08572 | -144.78119 | 33891 ft | 468 kts | 278° |
| 2026-04-28 00:39 | 62.09977 | -144.91599 | 33890 ft | 469 kts | 278° |
| 2026-04-28 00:39 | 62.11377 | -145.05165 | 33892 ft | 467 kts | 277° |
| 2026-04-28 00:40 | 62.12757 | -145.18692 | 33902 ft | 469 kts | 277° |
| 2026-04-28 00:40 | 62.14124 | -145.32225 | 33916 ft | 470 kts | 277° |